Avondale, Colorado
Current Conditions -  °F | °C
As of 2:53 AM on Friday 31 Oct 2014 (Local Time) from KPUB Reporting Station
Clear Clear  
Wind Chill: 31°   Ceiling: Unl
Heat Index: 35°   Visibility: 10mi
Dew Point: 27°   Wind: 5mph
Humidity: 72%   Direction: 260°W
Pressure: 30.41"   Gusts: NA
Location:  38.24°N, 104.35°W
Report Text: KPUB 310853Z AUTO 26004KT 10SM CLR 02/M03 A3041 RMK AO2 SLP279 T00171028 58002
Loading
Personal Weather Stations






























Interactive Weather Map
Tropical Storm Tracking
New forecast layout! Learn more

10-Day Weather Forecast

Advertisements
Track Severe Weather on mobile